createdAt,value
2024-04-24T00:01:24.637Z,100821.59
2024-04-24T00:03:55.063Z,100817.25
2024-04-24T00:06:25.699Z,100801.50
2024-04-24T00:08:58.798Z,100806.75
2024-04-24T00:11:29.321Z,100809.31
2024-04-24T00:13:59.738Z,100795.28
2024-04-24T00:16:30.027Z,100793.53
2024-04-24T00:19:00.626Z,100789.16
2024-04-24T00:21:30.940Z,100784.78
2024-04-24T00:24:04.147Z,100782.22
2024-04-24T00:26:34.970Z,100779.53
2024-04-24T00:29:05.560Z,100773.41
2024-04-24T00:31:36.020Z,100773.41
2024-04-24T00:34:07.703Z,100765.53
2024-04-24T00:36:38.101Z,100763.84
2024-04-24T00:39:11.160Z,100757.66
2024-04-24T00:41:41.468Z,100757.66
2024-04-24T00:44:12.010Z,100749.78
2024-04-24T00:46:42.528Z,100746.19
2024-04-24T00:49:12.869Z,100735.53
2024-04-24T00:51:43.318Z,100738.13
2024-04-24T00:54:16.469Z,100735.59
2024-04-24T00:56:46.844Z,100737.38
2024-04-24T00:59:17.278Z,100730.38
2024-04-24T01:01:47.880Z,100734.78
2024-04-24T01:04:18.298Z,100729.50
2024-04-24T01:06:51.629Z,100718.09
2024-04-24T01:09:24.897Z,100720.72
2024-04-24T01:11:55.607Z,100713.75
2024-04-24T01:14:26.242Z,100712.94
2024-04-24T01:16:56.866Z,100702.41
2024-04-24T01:19:37.435Z,100698.00
2024-04-24T01:22:12.915Z,100703.25
2024-04-24T01:24:46.460Z,100698.06
2024-04-24T01:27:19.571Z,100692.84
2024-04-24T01:29:49.909Z,100678.88
2024-04-24T01:32:20.343Z,100671.03
2024-04-24T01:34:50.822Z,100676.31
2024-04-24T01:37:18.593Z,100680.72
2024-04-24T01:39:48.943Z,100681.56
2024-04-24T01:42:22.338Z,100680.78
2024-04-24T01:44:52.643Z,100678.97
2024-04-24T01:47:23.157Z,100677.28
2024-04-24T01:49:50.940Z,100665.88
2024-04-24T01:52:21.278Z,100672.03
2024-04-24T01:54:51.632Z,100667.66
2024-04-24T01:57:24.966Z,100670.31
2024-04-24T01:59:55.399Z,100666.81
2024-04-24T02:02:25.764Z,100659.81
2024-04-24T02:04:56.171Z,100657.16
2024-04-24T02:07:26.524Z,100665.06
2024-04-24T02:09:56.853Z,100655.41
2024-04-24T02:12:29.891Z,100654.56
2024-04-24T02:15:00.354Z,100648.44
2024-04-24T02:17:31.682Z,100635.28
2024-04-24T02:20:02.261Z,100636.09
2024-04-24T02:22:35.166Z,100634.34
2024-04-24T02:25:23.170Z,100625.59
2024-04-24T02:27:56.161Z,100622.97
2024-04-24T02:30:26.541Z,100622.09
2024-04-24T02:32:56.987Z,100616.91
2024-04-24T02:35:27.966Z,100614.31
2024-04-24T02:37:58.379Z,100605.59
2024-04-24T02:40:28.809Z,100607.31
2024-04-24T02:43:01.850Z,100607.31
2024-04-24T02:45:32.151Z,100603.81
2024-04-24T02:48:02.652Z,100596.88
2024-04-24T02:50:33.170Z,100594.22
2024-04-24T02:53:04.031Z,100589.84
2024-04-24T02:55:34.515Z,100583.69
2024-04-24T02:58:08.022Z,100582.00
2024-04-24T03:00:38.426Z,100591.59
2024-04-24T03:03:09.306Z,100576.75
2024-04-24T03:05:39.766Z,100582.06
2024-04-24T03:08:10.611Z,100575.06
2024-04-24T03:10:41.063Z,100574.19
2024-04-24T03:13:14.095Z,100571.59
2024-04-24T03:15:44.551Z,100570.69
2024-04-24T03:18:14.993Z,100565.47
2024-04-24T03:20:45.753Z,100566.25
2024-04-24T03:23:16.423Z,100560.13
2024-04-24T03:25:47.482Z,100556.59
2024-04-24T03:28:20.590Z,100558.34
2024-04-24T03:30:50.903Z,100558.34
2024-04-24T03:33:21.346Z,100551.34
2024-04-24T03:35:51.758Z,100547.84
2024-04-24T03:38:22.186Z,100549.66
2024-04-24T03:40:52.590Z,100547.94
2024-04-24T03:43:25.669Z,100545.25
2024-04-24T03:45:56.130Z,100541.78
2024-04-24T03:48:23.883Z,100536.53
2024-04-24T03:50:54.250Z,100539.16
2024-04-24T03:53:24.646Z,100538.31
2024-04-24T03:55:55.249Z,100537.41
2024-04-24T03:58:28.303Z,100544.41
2024-04-24T04:00:58.707Z,100531.28
2024-04-24T04:03:29.122Z,100532.19
2024-04-24T04:05:59.473Z,100533.06
2024-04-24T04:08:31.157Z,100535.72
2024-04-24T04:11:01.712Z,100531.31
2024-04-24T04:13:34.750Z,100519.97
2024-04-24T04:16:05.100Z,100525.22
2024-04-24T04:18:35.936Z,100523.47
2024-04-24T04:21:06.401Z,100524.31
2024-04-24T04:23:36.696Z,100521.69
2024-04-24T04:26:07.442Z,100519.84
2024-04-24T04:28:40.494Z,100525.06
2024-04-24T04:31:10.915Z,100521.59
2024-04-24T04:33:41.310Z,100515.53
2024-04-24T04:36:12.149Z,100510.28
2024-04-24T04:38:42.523Z,100507.66
2024-04-24T04:41:12.910Z,100500.69
2024-04-24T04:43:46.041Z,100499.78
2024-04-24T04:46:16.368Z,100497.22
2024-04-24T04:48:47.311Z,100491.97
2024-04-24T04:51:18.369Z,100499.03
2024-04-24T04:53:48.772Z,100493.78
2024-04-24T04:56:19.175Z,100494.59
2024-04-24T04:58:52.234Z,100488.47
2024-04-24T05:01:22.588Z,100484.94
2024-04-24T05:03:53.045Z,100483.97
2024-04-24T05:06:23.358Z,100484.84
2024-04-24T05:08:54.494Z,100473.44
2024-04-24T05:11:25.118Z,100476.84
2024-04-24T05:13:58.286Z,100468.09
2024-04-24T05:16:28.625Z,100479.41
2024-04-24T05:18:59.036Z,100468.81
2024-04-24T05:21:29.336Z,100475.78
2024-04-24T05:23:59.979Z,100471.44
2024-04-24T05:26:46.498Z,100465.34
2024-04-24T05:29:19.581Z,100468.91
2024-04-24T05:31:51.043Z,100461.97
2024-04-24T05:34:21.442Z,100462.91
2024-04-24T05:36:51.810Z,100460.28
2024-04-24T05:39:22.244Z,100458.59
2024-04-24T05:41:52.580Z,100460.22
2024-04-24T05:44:28.886Z,100462.91
2024-04-24T05:47:00.046Z,100451.53
2024-04-24T05:49:30.396Z,100455.84
2024-04-24T05:52:01.211Z,100446.22
2024-04-24T05:54:32.279Z,100452.41
2024-04-24T05:57:02.640Z,100445.34
2024-04-24T05:59:36.394Z,100445.31
2024-04-24T06:02:06.868Z,100446.19
2024-04-24T06:04:37.751Z,100449.59
2024-04-24T06:07:08.278Z,100453.00
2024-04-24T06:09:38.637Z,100448.59
2024-04-24T06:12:09.225Z,100451.13
2024-04-24T06:14:42.234Z,100448.47
2024-04-24T06:17:13.067Z,100446.69
2024-04-24T06:19:43.832Z,100449.31
2024-04-24T06:22:14.193Z,100444.97
2024-04-24T06:24:44.605Z,100443.22
2024-04-24T06:27:15.066Z,100441.38
2024-04-24T06:29:48.168Z,100442.25
2024-04-24T06:32:18.609Z,100440.34
2024-04-24T06:34:49.062Z,100437.44
2024-04-24T06:37:19.421Z,100439.94
2024-04-24T06:39:49.953Z,100443.25
2024-04-24T06:42:20.303Z,100438.00
2024-04-24T06:44:53.776Z,100436.28
2024-04-24T06:47:24.330Z,100438.06
2024-04-24T06:49:54.848Z,100439.81
2024-04-24T06:52:25.239Z,100439.81
2024-04-24T06:54:55.617Z,100439.81
2024-04-24T06:57:25.956Z,100442.50
2024-04-24T06:59:59.149Z,100435.50
2024-04-24T07:02:29.648Z,100434.69
2024-04-24T07:05:00.151Z,100436.38
2024-04-24T07:07:30.543Z,100439.94
2024-04-24T07:10:00.970Z,100434.69
2024-04-24T07:12:31.267Z,100437.25
2024-04-24T07:15:04.849Z,100436.38
2024-04-24T07:17:35.378Z,100439.00
2024-04-24T07:20:05.891Z,100437.31
2024-04-24T07:22:36.236Z,100436.38
2024-04-24T07:25:06.731Z,100439.94
2024-04-24T07:27:37.162Z,100435.59
2024-04-24T07:30:12.106Z,100433.81
2024-04-24T07:32:42.646Z,100437.41
2024-04-24T07:35:13.116Z,100431.28
2024-04-24T07:37:44.190Z,100436.53
2024-04-24T07:40:15.104Z,100440.84
2024-04-24T07:42:45.507Z,100439.00
2024-04-24T07:45:18.748Z,100447.81
2024-04-24T07:47:49.297Z,100442.59
2024-04-24T07:50:19.831Z,100445.28
2024-04-24T07:52:50.344Z,100445.28
2024-04-24T07:55:20.718Z,100438.22
2024-04-24T07:57:51.123Z,100444.34
2024-04-24T08:00:26.745Z,100437.34
2024-04-24T08:02:57.179Z,100446.88
2024-04-24T08:05:27.717Z,100445.22
2024-04-24T08:07:58.206Z,100451.44
2024-04-24T08:10:28.566Z,100452.41
2024-04-24T08:12:58.915Z,100445.50
2024-04-24T08:15:32.064Z,100462.13
2024-04-24T08:18:02.554Z,100461.25
2024-04-24T08:20:33.069Z,100454.25
2024-04-24T08:23:03.667Z,100453.47
2024-04-24T08:25:34.087Z,100464.00
2024-04-24T08:28:04.757Z,100464.88
2024-04-24T08:30:37.849Z,100471.09
2024-04-24T08:33:08.797Z,100459.72
2024-04-24T08:35:39.488Z,100465.84
2024-04-24T08:38:09.920Z,100465.84
2024-04-24T08:40:40.455Z,100461.38
2024-04-24T08:43:10.849Z,100468.28
2024-04-24T08:45:43.828Z,100457.75
2024-04-24T08:48:16.898Z,100462.97
2024-04-24T08:50:47.895Z,100461.19
2024-04-24T08:53:18.366Z,100461.13
2024-04-24T08:55:48.756Z,100460.25
2024-04-24T08:58:19.994Z,100462.00
2024-04-24T09:00:53.514Z,100464.56
2024-04-24T09:03:26.508Z,100463.69
2024-04-24T09:05:58.582Z,100461.91
2024-04-24T09:08:29.027Z,100464.34
2024-04-24T09:10:59.607Z,100468.50
2024-04-24T09:13:29.964Z,100466.44
2024-04-24T09:16:03.801Z,100459.09
2024-04-24T09:18:34.156Z,100461.38
2024-04-24T09:21:05.060Z,100461.22
2024-04-24T09:23:35.426Z,100461.06
2024-04-24T09:26:05.877Z,100460.91
2024-04-24T09:28:36.277Z,100458.22
2024-04-24T09:31:10.441Z,100453.72
2024-04-24T09:33:40.833Z,100458.97
2024-04-24T09:36:11.973Z,100457.22
2024-04-24T09:38:43.147Z,100452.00
2024-04-24T09:41:13.910Z,100454.72
2024-04-24T09:43:44.355Z,100448.56
2024-04-24T09:46:19.486Z,100454.44
2024-04-24T09:48:49.974Z,100455.03
2024-04-24T09:53:52.408Z,100461.94
2024-04-24T09:56:24.335Z,100459.31
2024-04-24T09:58:55.494Z,100462.88
2024-04-24T10:01:29.962Z,100463.75
2024-04-24T10:04:00.289Z,100469.06
2024-04-24T10:06:30.783Z,100460.19
2024-04-24T10:09:02.362Z,100460.00
2024-04-24T10:11:36.876Z,100461.75
2024-04-24T10:14:08.774Z,100458.41
2024-04-24T10:16:42.765Z,100455.97
2024-04-24T10:19:13.259Z,100456.06
2024-04-24T10:21:43.876Z,100459.66
2024-04-24T10:24:11.555Z,100459.59
2024-04-24T10:26:42.027Z,100452.50
2024-04-24T10:29:12.403Z,100453.31
2024-04-24T10:31:45.738Z,100451.09
2024-04-24T10:34:16.092Z,100448.91
2024-04-24T10:36:47.460Z,100459.13
2024-04-24T10:39:18.575Z,100453.69
2024-04-24T10:41:49.319Z,100461.34
2024-04-24T10:44:19.984Z,100452.31
2024-04-24T10:46:53.097Z,100450.22
2024-04-24T10:49:23.500Z,100449.78
2024-04-24T10:51:53.953Z,100440.91
2024-04-24T10:54:24.677Z,100450.66
2024-04-24T10:56:54.988Z,100453.34
2024-04-24T10:59:33.352Z,100447.00
2024-04-24T11:02:20.315Z,100458.16
2024-04-24T11:04:51.798Z,100456.34
2024-04-24T11:07:28.818Z,100451.09
2024-04-24T11:10:08.232Z,100455.44
2024-04-24T11:12:41.871Z,100454.53
2024-04-24T11:15:22.342Z,100452.72
2024-04-24T11:17:55.759Z,100446.53
2024-04-24T11:20:28.146Z,100456.91
2024-04-24T11:22:58.705Z,100453.34
2024-04-24T11:25:31.855Z,100450.59
2024-04-24T11:28:02.508Z,100449.44
2024-04-24T11:30:34.393Z,100450.22
2024-04-24T11:33:08.019Z,100448.69
2024-04-24T11:35:38.530Z,100447.97
2024-04-24T11:38:08.946Z,100444.66
2024-04-24T11:40:39.315Z,100450.19
2024-04-24T11:43:09.732Z,100451.16
2024-04-24T11:45:41.022Z,100446.78
2024-04-24T11:48:14.378Z,100437.25
2024-04-24T11:50:44.854Z,100445.03
2024-04-24T11:53:15.307Z,100450.00
2024-04-24T11:55:45.736Z,100444.56
2024-04-24T11:58:16.289Z,100439.28
2024-04-24T12:00:48.354Z,100439.41
2024-04-24T12:03:22.769Z,100447.47
2024-04-24T12:05:54.140Z,100437.81
2024-04-24T12:08:29.144Z,100442.09
2024-04-24T12:11:01.024Z,100445.59
2024-04-24T12:13:33.531Z,100438.41
2024-04-24T12:16:04.566Z,100443.56
2024-04-24T12:18:38.267Z,100439.03
2024-04-24T12:21:08.961Z,100444.19
2024-04-24T12:23:39.331Z,100444.91
2024-04-24T12:26:09.692Z,100441.22
2024-04-24T12:28:40.037Z,100436.56
2024-04-24T12:31:10.436Z,100440.84
2024-04-24T12:33:43.612Z,100443.44
2024-04-24T12:36:15.479Z,100442.50
2024-04-24T12:38:45.878Z,100444.03
2024-04-24T12:41:16.226Z,100436.72
2024-04-24T12:43:46.635Z,100437.53
2024-04-24T12:46:17.087Z,100437.53
2024-04-24T12:48:51.134Z,100430.56
2024-04-24T12:51:21.499Z,100441.72
2024-04-24T12:53:51.928Z,100447.66
2024-04-24T12:56:22.361Z,100448.28
2024-04-24T12:58:53.879Z,100451.34
2024-04-24T13:01:24.402Z,100451.66
2024-04-24T13:03:57.743Z,100461.41
2024-04-24T13:06:28.232Z,100454.50
2024-04-24T13:09:01.142Z,100464.22
2024-04-24T13:11:31.607Z,100458.25
2024-04-24T13:14:02.208Z,100462.69
2024-04-24T13:16:32.622Z,100456.72
2024-04-24T13:19:05.762Z,100458.66
2024-04-24T13:21:36.268Z,100457.06
2024-04-24T13:24:04.333Z,100456.34
2024-04-24T13:26:34.835Z,100445.91
2024-04-24T13:29:05.362Z,100446.03
2024-04-24T13:31:35.840Z,100445.19
2024-04-24T13:34:09.135Z,100440.75
2024-04-24T13:36:39.856Z,100439.06
2024-04-24T13:39:10.718Z,100443.44
2024-04-24T13:41:42.445Z,100443.59
2024-04-24T13:44:15.847Z,100436.56
2024-04-24T13:46:46.984Z,100436.56
2024-04-24T13:49:20.169Z,100435.69
2024-04-24T13:51:50.605Z,100437.44
2024-04-24T13:54:20.939Z,100430.34
2024-04-24T13:56:51.456Z,100432.09
2024-04-24T13:59:21.987Z,100431.22
2024-04-24T14:01:55.375Z,100439.22
2024-04-24T14:04:28.544Z,100434.03
2024-04-24T14:06:58.910Z,100435.78
2024-04-24T14:09:29.920Z,100438.44
2024-04-24T14:12:00.331Z,100436.72
2024-04-24T14:14:31.252Z,100430.59
2024-04-24T14:17:01.730Z,100437.69
2024-04-24T14:19:34.884Z,100431.56
2024-04-24T14:22:05.504Z,100425.38
2024-04-24T14:24:35.857Z,100421.81
2024-04-24T14:27:06.276Z,100428.78
2024-04-24T14:29:36.671Z,100425.09
2024-04-24T14:32:07.291Z,100425.72
2024-04-24T14:34:43.133Z,100423.09
2024-04-24T14:37:13.572Z,100420.28
2024-04-24T14:39:44.089Z,100423.84
2024-04-24T14:42:14.508Z,100420.28
2024-04-24T14:44:46.797Z,100408.63
2024-04-24T14:47:17.478Z,100405.25
2024-04-24T14:49:50.607Z,100404.22
2024-04-24T14:52:21.579Z,100402.06
2024-04-24T14:54:51.938Z,100403.09
2024-04-24T14:57:22.279Z,100405.34
2024-04-24T14:59:52.751Z,100402.63
2024-04-24T15:02:23.147Z,100398.50
2024-04-24T15:04:56.209Z,100406.09
2024-04-24T15:07:26.551Z,100398.75
2024-04-24T15:09:57.550Z,100402.53
2024-04-24T15:12:25.294Z,100401.41
2024-04-24T15:14:55.759Z,100398.94
2024-04-24T15:17:26.201Z,100392.56
2024-04-24T15:20:00.158Z,100398.53
2024-04-24T15:22:30.687Z,100397.56
2024-04-24T15:25:01.010Z,100393.50
2024-04-24T15:27:32.707Z,100390.34
2024-04-24T15:30:03.082Z,100390.28
2024-04-24T15:32:33.594Z,100392.72
2024-04-24T15:35:08.340Z,100395.66
2024-04-24T15:37:38.839Z,100394.63
2024-04-24T15:40:10.135Z,100402.06
2024-04-24T15:42:40.527Z,100401.41
2024-04-24T15:45:11.366Z,100404.22
2024-04-24T15:47:41.828Z,100394.84
2024-04-24T15:50:15.000Z,100398.66
2024-04-24T15:52:45.332Z,100395.41
2024-04-24T15:55:15.735Z,100393.09
2024-04-24T15:57:46.205Z,100403.88
2024-04-24T16:00:17.446Z,100402.38
2024-04-24T16:02:49.823Z,100410.56
2024-04-24T16:05:26.313Z,100416.94
2024-04-24T16:07:56.741Z,100415.47
2024-04-24T16:10:27.068Z,100416.59
2024-04-24T16:12:55.348Z,100416.88
2024-04-24T16:15:25.789Z,100413.56
2024-04-24T16:17:56.896Z,100417.25
2024-04-24T16:20:30.258Z,100430.50
2024-04-24T16:23:00.817Z,100419.31
2024-04-24T16:25:33.438Z,100429.16
2024-04-24T16:28:04.013Z,100435.44
2024-04-24T16:30:34.331Z,100429.47
2024-04-24T16:33:04.905Z,100438.38
2024-04-24T16:35:38.039Z,100434.97
2024-04-24T16:38:08.839Z,100435.94
2024-04-24T16:40:40.651Z,100431.66
2024-04-24T16:43:11.875Z,100437.06
2024-04-24T16:45:42.218Z,100433.63
2024-04-24T16:48:14.115Z,100435.44
2024-04-24T16:50:47.527Z,100429.44
2024-04-24T16:53:17.914Z,100420.75
2024-04-24T16:55:50.313Z,100433.94
2024-04-24T16:58:21.177Z,100434.97
2024-04-24T17:00:51.569Z,100434.19
2024-04-24T17:03:21.938Z,100431.66
2024-04-24T17:05:55.450Z,100437.84
2024-04-24T17:08:26.071Z,100437.03
2024-04-24T17:10:57.262Z,100442.31
2024-04-24T17:13:27.749Z,100448.56
2024-04-24T17:15:58.150Z,100447.75
2024-04-24T17:18:28.630Z,100452.16
2024-04-24T17:21:03.482Z,100444.41
2024-04-24T17:23:31.216Z,100447.06
2024-04-24T17:26:02.417Z,100447.06
2024-04-24T17:28:35.707Z,100448.88
2024-04-24T17:31:06.123Z,100452.47
2024-04-24T17:33:36.519Z,100442.88
2024-04-24T17:36:12.556Z,100446.44
2024-04-24T17:38:42.863Z,100442.94
2024-04-24T17:41:13.400Z,100451.69
2024-04-24T17:43:43.858Z,100445.56
2024-04-24T17:46:14.591Z,100452.44
2024-04-24T17:48:45.158Z,100447.13
2024-04-24T17:51:18.274Z,100448.78
2024-04-24T17:53:48.614Z,100452.31
2024-04-24T17:56:19.290Z,100454.91
2024-04-24T17:58:49.693Z,100452.28
2024-04-24T18:01:20.436Z,100455.75
2024-04-24T18:03:50.832Z,100450.50
2024-04-24T18:06:23.959Z,100459.41
2024-04-24T18:08:54.346Z,100458.66
2024-04-24T18:11:25.245Z,100460.47
2024-04-24T18:13:55.701Z,100463.19
2024-04-24T18:16:26.069Z,100463.22
2024-04-24T18:18:54.517Z,100472.03
2024-04-24T18:21:30.116Z,100465.84
2024-04-24T18:24:00.483Z,100472.03
2024-04-24T18:26:30.962Z,100471.16
2024-04-24T18:29:02.531Z,100478.13
2024-04-24T18:31:33.672Z,100471.22
2024-04-24T18:34:04.183Z,100467.88
2024-04-24T18:36:37.432Z,100478.53
2024-04-24T18:39:08.193Z,100484.88
2024-04-24T18:41:38.783Z,100483.25
2024-04-24T18:44:09.755Z,100477.22
2024-04-24T18:46:40.139Z,100487.81
2024-04-24T18:49:10.518Z,100487.09
2024-04-24T18:51:43.771Z,100488.91
2024-04-24T18:54:16.328Z,100488.03
2024-04-24T18:56:46.845Z,100495.16
2024-04-24T18:59:17.242Z,100496.84
2024-04-24T19:01:47.683Z,100498.50
2024-04-24T19:04:18.217Z,100496.75
2024-04-24T19:06:51.259Z,100496.66
2024-04-24T19:09:19.055Z,100504.53
2024-04-24T19:11:49.584Z,100505.28
2024-04-24T19:14:20.112Z,100496.53
2024-04-24T19:16:51.593Z,100493.94
2024-04-24T19:19:22.239Z,100499.28
2024-04-24T19:21:55.245Z,100494.88
2024-04-24T19:24:25.647Z,100502.69
2024-04-24T19:26:56.035Z,100499.22
2024-04-24T19:29:26.481Z,100511.44
2024-04-24T19:31:56.934Z,100500.03
2024-04-24T19:34:27.315Z,100505.28
2024-04-24T19:37:00.440Z,100502.63
2024-04-24T19:39:30.779Z,100502.63
2024-04-24T19:42:01.144Z,100501.75
2024-04-24T19:44:31.485Z,100502.66
2024-04-24T19:47:02.753Z,100498.25
2024-04-24T19:49:33.199Z,100506.19
2024-04-24T19:52:06.202Z,100504.47
2024-04-24T19:54:38.426Z,100506.19
2024-04-24T19:57:09.062Z,100504.47
2024-04-24T19:59:39.518Z,100503.63
2024-04-24T20:02:10.269Z,100508.88
2024-04-24T20:04:40.740Z,100508.00
2024-04-24T20:07:14.721Z,100499.28
2024-04-24T20:09:46.240Z,100507.16
2024-04-24T20:12:16.702Z,100503.66
2024-04-24T20:14:47.200Z,100508.00
2024-04-24T20:17:17.687Z,100505.38
2024-04-24T20:19:48.190Z,100505.41
2024-04-24T20:22:21.208Z,100505.41
2024-04-24T20:24:51.635Z,100503.72
2024-04-24T20:27:22.033Z,100502.84
2024-04-24T20:29:53.098Z,100501.13
2024-04-24T20:32:26.821Z,100507.25
2024-04-24T20:34:57.429Z,100503.75
2024-04-24T20:37:30.445Z,100502.91
2024-04-24T20:40:00.906Z,100499.41
2024-04-24T20:42:31.256Z,100499.41
2024-04-24T20:45:03.543Z,100506.38
2024-04-24T20:47:34.156Z,100501.13
2024-04-24T20:50:05.373Z,100501.19
2024-04-24T20:52:38.430Z,100508.22
2024-04-24T20:55:09.777Z,100512.59
2024-04-24T20:57:40.118Z,100513.56
2024-04-24T21:00:12.913Z,100510.06
2024-04-24T21:02:43.329Z,100510.94
2024-04-24T21:05:13.835Z,100509.22
2024-04-24T21:07:46.849Z,100504.81
2024-04-24T21:10:17.218Z,100498.72
2024-04-24T21:12:47.552Z,100496.09
2024-04-24T21:15:18.049Z,100498.72
2024-04-24T21:17:48.487Z,100499.63
2024-04-24T21:20:19.037Z,100503.13
2024-04-24T21:22:52.096Z,100504.06
2024-04-24T21:25:22.432Z,100500.59
2024-04-24T21:27:52.760Z,100498.00
2024-04-24T21:30:23.034Z,100504.09
2024-04-24T21:32:53.537Z,100502.38
2024-04-24T21:35:23.970Z,100499.81
2024-04-24T21:37:57.127Z,100501.63
2024-04-24T21:40:27.557Z,100499.94
2024-04-24T21:42:58.777Z,100491.22
2024-04-24T21:45:30.278Z,100498.31
2024-04-24T21:48:00.664Z,100496.56
2024-04-24T21:50:31.082Z,100494.84
2024-04-24T21:53:05.737Z,100493.16
2024-04-24T21:55:36.171Z,100493.16
2024-04-24T21:58:06.541Z,100494.06
2024-04-24T22:00:36.967Z,100499.31
2024-04-24T22:03:07.922Z,100494.09
2024-04-24T22:05:38.373Z,100500.19
2024-04-24T22:08:11.808Z,100499.31
2024-04-24T22:10:42.172Z,100493.19
2024-04-24T22:13:12.518Z,100490.56
2024-04-24T22:15:42.865Z,100491.44
2024-04-24T22:18:14.333Z,100482.72
2024-04-24T22:20:44.699Z,100484.41
2024-04-24T22:23:17.968Z,100481.81
2024-04-24T22:25:48.327Z,100480.94
2024-04-24T22:28:18.662Z,100481.72
2024-04-24T22:30:49.025Z,100486.06
2024-04-24T22:33:20.689Z,100490.47
2024-04-24T22:35:51.410Z,100486.09
2024-04-24T22:38:24.484Z,100481.81
2024-04-24T22:40:55.557Z,100484.44
2024-04-24T22:43:25.887Z,100484.44
2024-04-24T22:45:56.249Z,100487.06
2024-04-24T22:48:26.613Z,100483.34
2024-04-24T22:50:57.025Z,100491.13
2024-04-24T22:53:30.125Z,100485.75
2024-04-24T22:55:57.885Z,100488.34
2024-04-24T22:58:28.254Z,100483.25
2024-04-24T23:00:58.809Z,100480.63
2024-04-24T23:03:29.142Z,100478.81
2024-04-24T23:05:59.671Z,100477.84
2024-04-24T23:08:32.839Z,100474.25
2024-04-24T23:11:03.375Z,100479.50
2024-04-24T23:13:33.924Z,100478.72
2024-04-24T23:16:04.417Z,100472.63
2024-04-24T23:18:38.568Z,100469.22
2024-04-24T23:21:09.277Z,100470.13
2024-04-24T23:23:42.959Z,100468.41
2024-04-24T23:26:13.337Z,100459.72
2024-04-24T23:28:43.720Z,100464.97
2024-04-24T23:31:17.167Z,100455.38
2024-04-24T23:33:47.877Z,100459.75
2024-04-24T23:36:18.211Z,100461.56
2024-04-24T23:38:51.319Z,100458.00
2024-04-24T23:41:21.711Z,100452.81
2024-04-24T23:43:50.070Z,100456.31
2024-04-24T23:46:21.601Z,100451.94
2024-04-24T23:48:52.526Z,100450.19
2024-04-24T23:51:22.857Z,100452.84
2024-04-24T23:53:55.867Z,100450.19
2024-04-24T23:56:27.433Z,100436.19
2024-04-24T23:58:57.899Z,100440.63
